sensor_id;sensor_type;location;lat;lon;timestamp;temperature;humidity
3001;DHT22;1510;51.072;6.678;2023-02-28T11:30:31;7.90;21.10
3001;DHT22;1510;51.072;6.678;2023-02-28T15:10:12;6.40;18.40
3001;DHT22;1510;51.072;6.678;2023-02-28T15:12:40;6.90;21.10
3001;DHT22;1510;51.072;6.678;2023-02-28T15:15:15;7.00;20.70
3001;DHT22;1510;51.072;6.678;2023-02-28T15:17:45;7.20;17.70
3001;DHT22;1510;51.072;6.678;2023-02-28T15:20:14;8.00;17.10
3001;DHT22;1510;51.072;6.678;2023-02-28T15:22:42;8.70;13.30
3001;DHT22;1510;51.072;6.678;2023-02-28T15:25:15;9.00;12.60
3001;DHT22;1510;51.072;6.678;2023-02-28T15:27:46;8.80;8.50
3001;DHT22;1510;51.072;6.678;2023-02-28T15:30:17;8.20;10.80
3001;DHT22;1510;51.072;6.678;2023-02-28T15:32:45;7.90;16.50
3001;DHT22;1510;51.072;6.678;2023-02-28T15:35:30;7.40;16.20
3001;DHT22;1510;51.072;6.678;2023-02-28T15:38:01;7.10;18.70
3001;DHT22;1510;51.072;6.678;2023-02-28T15:40:36;6.80;19.20
3001;DHT22;1510;51.072;6.678;2023-02-28T15:43:06;7.00;21.90
3001;DHT22;1510;51.072;6.678;2023-02-28T15:45:40;7.00;23.20
3001;DHT22;1510;51.072;6.678;2023-02-28T15:48:16;6.80;25.60
3001;DHT22;1510;51.072;6.678;2023-02-28T15:50:44;6.70;26.40
3001;DHT22;1510;51.072;6.678;2023-02-28T15:53:16;6.50;25.30
3001;DHT22;1510;51.072;6.678;2023-02-28T15:55:45;6.40;22.90
3001;DHT22;1510;51.072;6.678;2023-02-28T15:58:19;6.30;19.50
3001;DHT22;1510;51.072;6.678;2023-02-28T16:01:16;6.10;19.60
3001;DHT22;1510;51.072;6.678;2023-02-28T16:03:46;6.00;24.30
3001;DHT22;1510;51.072;6.678;2023-02-28T16:06:36;5.90;21.40
3001;DHT22;1510;51.072;6.678;2023-02-28T16:09:06;5.80;28.70
3001;DHT22;1510;51.072;6.678;2023-02-28T16:11:38;5.80;28.50
3001;DHT22;1510;51.072;6.678;2023-02-28T16:14:08;5.70;29.50
3001;DHT22;1510;51.072;6.678;2023-02-28T16:16:42;5.90;33.20
3001;DHT22;1510;51.072;6.678;2023-02-28T16:19:09;5.60;30.90
3001;DHT22;1510;51.072;6.678;2023-02-28T16:21:36;5.50;32.20
3001;DHT22;1510;51.072;6.678;2023-02-28T16:24:03;5.40;34.00
3001;DHT22;1510;51.072;6.678;2023-02-28T16:26:30;5.10;34.00
3001;DHT22;1510;51.072;6.678;2023-02-28T16:29:01;5.20;35.40
3001;DHT22;1510;51.072;6.678;2023-02-28T16:31:28;5.20;35.50
3001;DHT22;1510;51.072;6.678;2023-02-28T16:33:56;5.10;37.20
3001;DHT22;1510;51.072;6.678;2023-02-28T16:36:23;5.20;39.60
3001;DHT22;1510;51.072;6.678;2023-02-28T16:38:54;5.20;40.70
3001;DHT22;1510;51.072;6.678;2023-02-28T16:41:24;5.00;39.10
3001;DHT22;1510;51.072;6.678;2023-02-28T16:43:54;4.90;38.90
3001;DHT22;1510;51.072;6.678;2023-02-28T16:46:28;4.90;38.40
3001;DHT22;1510;51.072;6.678;2023-02-28T16:48:56;4.70;38.20
3001;DHT22;1510;51.072;6.678;2023-02-28T16:51:23;4.60;41.00
3001;DHT22;1510;51.072;6.678;2023-02-28T16:53:50;4.50;41.30
3001;DHT22;1510;51.072;6.678;2023-02-28T16:56:19;4.20;44.70
3001;DHT22;1510;51.072;6.678;2023-02-28T16:58:47;4.10;44.40
3001;DHT22;1510;51.072;6.678;2023-02-28T17:01:15;4.10;45.40
3001;DHT22;1510;51.072;6.678;2023-02-28T17:03:43;3.90;47.50
3001;DHT22;1510;51.072;6.678;2023-02-28T17:06:18;3.60;49.10
3001;DHT22;1510;51.072;6.678;2023-02-28T17:08:46;3.30;51.70
3001;DHT22;1510;51.072;6.678;2023-02-28T19:59:29;0.40;85.20
3001;DHT22;1510;51.072;6.678;2023-02-28T20:01:56;0.50;84.90
3001;DHT22;1510;51.072;6.678;2023-02-28T20:04:25;0.50;84.70
3001;DHT22;1510;51.072;6.678;2023-02-28T20:09:23;0.60;85.20
3001;DHT22;1510;51.072;6.678;2023-02-28T20:11:50;0.60;85.20
3001;DHT22;1510;51.072;6.678;2023-02-28T20:14:19;0.60;85.40
3001;DHT22;1510;51.072;6.678;2023-02-28T20:27:05;0.00;87.90
3001;DHT22;1510;51.072;6.678;2023-02-28T20:29:33;0.30;88.60
3001;DHT22;1510;51.072;6.678;2023-02-28T20:32:10;0.10;88.80
3001;DHT22;1510;51.072;6.678;2023-02-28T20:34:37;0.00;89.90
3001;DHT22;1510;51.072;6.678;2023-02-28T20:37:04;-0.20;90.90
3001;DHT22;1510;51.072;6.678;2023-02-28T20:39:35;-0.30;91.90
